createdAt,value
2018-12-06T00:02:19.626Z,233.60
2018-12-06T00:04:49.354Z,248.87
2018-12-06T00:07:19.138Z,257.17
2018-12-06T00:09:49.037Z,237.63
2018-12-06T00:12:18.852Z,233.67
2018-12-06T00:14:48.885Z,234.03
2018-12-06T00:17:18.715Z,241.23
2018-12-06T00:19:48.462Z,265.57
2018-12-06T00:22:18.301Z,250.63
2018-12-06T00:24:48.103Z,273.43
2018-12-06T00:27:18.160Z,252.03
2018-12-06T00:29:57.662Z,241.33
2018-12-06T00:32:27.382Z,266.57
2018-12-06T00:34:57.229Z,255.03
2018-12-06T00:37:26.931Z,268.23
2018-12-06T00:39:56.701Z,273.67
2018-12-06T00:42:26.511Z,282.20
2018-12-06T00:45:02.114Z,256.23
2018-12-06T00:47:31.871Z,278.50
2018-12-06T00:50:01.745Z,241.57
2018-12-06T00:52:31.592Z,268.93
2018-12-06T00:55:01.331Z,269.40
2018-12-06T00:57:31.215Z,281.53
2018-12-06T01:00:01.031Z,283.53
2018-12-06T01:02:31.012Z,274.83
2018-12-06T01:05:01.205Z,259.17
2018-12-06T01:07:33.067Z,266.80
2018-12-06T01:10:02.917Z,258.83
2018-12-06T01:12:32.696Z,242.23
2018-12-06T01:15:02.512Z,243.23
2018-12-06T01:17:32.380Z,243.33
2018-12-06T01:20:02.159Z,240.53
2018-12-06T01:22:32.087Z,228.53
2018-12-06T01:25:01.912Z,257.30
2018-12-06T01:27:31.696Z,240.53
2018-12-06T01:30:01.431Z,236.20
2018-12-06T01:32:31.353Z,228.60
2018-12-06T01:35:01.321Z,235.53
2018-12-06T01:37:31.173Z,257.93
2018-12-06T01:40:00.977Z,227.87
2018-12-06T01:42:30.812Z,235.43
2018-12-06T01:45:00.660Z,230.73
2018-12-06T01:47:30.499Z,239.60
2018-12-06T01:50:00.471Z,229.00
2018-12-06T01:52:30.294Z,226.43
2018-12-06T01:55:00.059Z,232.37
2018-12-06T01:57:29.872Z,241.70
2018-12-06T01:59:59.668Z,233.27
2018-12-06T02:02:29.557Z,214.50
2018-12-06T02:04:59.341Z,231.83
2018-12-06T02:07:29.003Z,213.20
2018-12-06T02:09:58.688Z,238.40
2018-12-06T02:12:28.558Z,230.47
2018-12-06T02:14:58.260Z,227.93
2018-12-06T02:17:28.069Z,249.70
2018-12-06T02:19:57.980Z,224.87
2018-12-06T02:22:27.674Z,238.20
2018-12-06T02:24:57.369Z,210.03
2018-12-06T02:27:27.094Z,245.37
2018-12-06T02:29:56.990Z,270.13
2018-12-06T02:32:26.894Z,269.93
2018-12-06T02:34:56.709Z,287.80
2018-12-06T02:37:26.485Z,301.57
2018-12-06T02:39:56.202Z,344.60
2018-12-06T02:42:26.012Z,421.17
2018-12-06T02:44:55.716Z,430.63
2018-12-06T02:47:25.441Z,576.50
2018-12-06T02:49:55.436Z,1281.47
2018-12-06T02:52:25.519Z,595.53
2018-12-06T02:54:55.358Z,730.53
2018-12-06T02:57:26.190Z,762.97
2018-12-06T02:59:55.907Z,1266.10
2018-12-06T03:02:25.807Z,1096.47
2018-12-06T03:04:55.601Z,916.60
2018-12-06T03:07:25.375Z,1591.60
2018-12-06T03:09:55.152Z,628.00
2018-12-06T03:12:25.167Z,751.13
2018-12-06T03:14:54.936Z,1297.70
2018-12-06T03:17:26.812Z,761.80
2018-12-06T03:19:56.565Z,504.33
2018-12-06T03:22:26.520Z,614.93
2018-12-06T03:24:56.285Z,482.63
2018-12-06T03:27:26.272Z,638.10
2018-12-06T03:29:55.996Z,583.43
2018-12-06T03:32:26.016Z,619.33
2018-12-06T03:34:55.709Z,684.27
2018-12-06T03:37:25.574Z,620.27
2018-12-06T03:39:55.395Z,1137.73
2018-12-06T03:42:25.273Z,783.00
2018-12-06T03:44:54.995Z,796.33
2018-12-06T03:47:24.825Z,742.10
2018-12-06T03:49:54.562Z,814.60
2018-12-06T03:52:24.481Z,1078.80
2018-12-06T03:54:54.303Z,1067.00
2018-12-06T03:57:24.130Z,862.27
2018-12-06T03:59:53.879Z,789.37
2018-12-06T04:02:23.641Z,994.70
2018-12-06T04:04:53.571Z,539.10
2018-12-06T04:07:23.471Z,731.47
2018-12-06T04:09:53.393Z,893.47
2018-12-06T04:12:23.247Z,562.63
2018-12-06T04:14:53.046Z,935.87
2018-12-06T04:17:23.802Z,989.67
2018-12-06T04:19:53.662Z,1163.57
2018-12-06T04:22:23.463Z,851.83
2018-12-06T04:24:59.799Z,860.00
2018-12-06T04:27:29.675Z,733.67
2018-12-06T04:29:59.510Z,730.97
2018-12-06T04:32:29.318Z,779.57
2018-12-06T04:34:59.112Z,843.23
2018-12-06T04:37:28.930Z,1166.00
2018-12-06T04:39:58.842Z,802.17
2018-12-06T04:42:28.730Z,889.37
2018-12-06T04:44:58.580Z,1050.37
2018-12-06T04:47:28.287Z,859.40
2018-12-06T04:49:58.119Z,869.47
2018-12-06T04:52:27.966Z,1269.57
2018-12-06T04:54:57.690Z,1071.23
2018-12-06T04:57:27.544Z,966.93
2018-12-06T04:59:57.440Z,967.20
2018-12-06T05:02:27.198Z,711.60
2018-12-06T05:04:57.063Z,836.73
2018-12-06T05:07:27.035Z,871.57
2018-12-06T05:09:56.955Z,920.83
2018-12-06T05:12:26.805Z,780.67
2018-12-06T05:14:56.642Z,891.43
2018-12-06T05:17:26.501Z,1053.03
2018-12-06T05:19:56.228Z,1126.70
2018-12-06T05:22:25.984Z,1016.63
2018-12-06T05:24:55.984Z,1038.63
2018-12-06T05:27:25.945Z,784.43
2018-12-06T05:29:55.873Z,644.43
2018-12-06T05:32:25.974Z,422.63
2018-12-06T05:34:55.793Z,647.10
2018-12-06T05:37:25.787Z,751.13
2018-12-06T05:39:55.680Z,735.17
2018-12-06T05:42:25.604Z,838.00
2018-12-06T05:44:55.495Z,1118.27
2018-12-06T05:47:25.414Z,1459.10
2018-12-06T05:49:55.212Z,679.50
2018-12-06T05:52:25.206Z,875.87
2018-12-06T05:54:54.959Z,573.87
2018-12-06T05:57:24.898Z,678.73
2018-12-06T05:59:54.892Z,798.97
2018-12-06T06:02:25.900Z,755.30
2018-12-06T06:04:55.794Z,584.07
2018-12-06T06:07:25.814Z,737.57
2018-12-06T06:09:55.723Z,651.87
2018-12-06T06:12:25.691Z,756.80
2018-12-06T06:14:55.659Z,936.80
2018-12-06T06:17:25.660Z,659.13
2018-12-06T06:19:55.442Z,635.70
2018-12-06T06:22:26.123Z,770.70
2018-12-06T06:24:56.181Z,698.07
2018-12-06T06:27:26.465Z,496.00
2018-12-06T06:29:56.392Z,550.23
2018-12-06T06:32:26.315Z,727.13
2018-12-06T06:34:56.460Z,565.10
2018-12-06T06:37:26.578Z,665.07
2018-12-06T06:39:56.540Z,622.60
2018-12-06T06:42:26.514Z,589.13
2018-12-06T06:44:56.334Z,540.67
2018-12-06T06:47:26.357Z,541.20
2018-12-06T06:49:56.353Z,582.37
2018-12-06T06:52:26.426Z,621.73
2018-12-06T06:54:56.555Z,927.33
2018-12-06T06:57:26.678Z,595.20
2018-12-06T06:59:56.821Z,550.60
2018-12-06T07:02:26.750Z,675.60
2018-12-06T07:04:57.786Z,331.97
2018-12-06T07:07:27.981Z,391.00
2018-12-06T07:09:58.046Z,434.23
2018-12-06T07:12:27.987Z,765.67
2018-12-06T07:14:57.833Z,631.33
2018-12-06T07:17:27.761Z,401.30
2018-12-06T07:19:57.630Z,531.87
2018-12-06T07:22:27.566Z,672.93
2018-12-06T07:24:57.451Z,439.70
2018-12-06T07:27:27.633Z,525.90
2018-12-06T07:29:57.510Z,298.30
2018-12-06T07:32:27.313Z,540.90
2018-12-06T07:34:57.231Z,350.43
2018-12-06T07:37:27.018Z,427.70
2018-12-06T07:39:56.896Z,449.77
2018-12-06T07:42:26.816Z,523.53
2018-12-06T07:44:56.670Z,708.70
2018-12-06T07:47:26.481Z,554.00
2018-12-06T07:49:56.312Z,496.50
2018-12-06T07:52:26.234Z,227.73
2018-12-06T07:54:56.214Z,196.60
2018-12-06T07:57:26.095Z,136.07
2018-12-06T07:59:56.092Z,189.30
2018-12-06T08:02:25.988Z,469.30
2018-12-06T08:04:55.704Z,379.50
2018-12-06T08:07:25.631Z,499.03
2018-12-06T08:09:55.456Z,384.63
2018-12-06T08:12:25.407Z,462.47
2018-12-06T08:14:55.191Z,201.63
2018-12-06T08:17:25.025Z,175.97
2018-12-06T08:19:54.982Z,409.13
2018-12-06T08:22:24.641Z,347.60
2018-12-06T08:24:54.514Z,320.63
2018-12-06T08:27:25.285Z,382.77
2018-12-06T08:29:55.339Z,131.93
2018-12-06T08:32:25.128Z,411.40
2018-12-06T08:34:55.044Z,238.67
2018-12-06T08:37:24.938Z,247.73
2018-12-06T08:39:54.809Z,134.10
2018-12-06T08:42:24.638Z,201.43
2018-12-06T08:44:54.494Z,51.97
2018-12-06T08:47:24.486Z,163.00
2018-12-06T08:49:54.281Z,108.30
2018-12-06T08:52:24.077Z,150.63
2018-12-06T08:54:54.074Z,281.40
2018-12-06T08:57:24.069Z,203.00
2018-12-06T08:59:54.115Z,181.23
2018-12-06T09:02:23.985Z,214.50
2018-12-06T09:04:54.070Z,184.87
2018-12-06T09:07:23.855Z,208.60
2018-12-06T09:09:53.918Z,174.53
2018-12-06T09:12:23.883Z,149.07
2018-12-06T09:14:54.070Z,167.00
2018-12-06T09:17:24.229Z,199.23
2018-12-06T09:19:55.413Z,174.53
2018-12-06T09:22:25.483Z,160.27
2018-12-06T09:24:55.479Z,59.63
2018-12-06T09:27:25.479Z,157.70
2018-12-06T09:29:55.526Z,140.37
2018-12-06T09:32:25.479Z,180.50
2018-12-06T09:34:55.606Z,190.47
2018-12-06T09:37:25.473Z,134.53
2018-12-06T09:39:59.985Z,131.63
2018-12-06T09:42:29.926Z,86.37
2018-12-06T09:44:59.908Z,140.60
2018-12-06T09:47:29.865Z,229.37
2018-12-06T09:49:59.971Z,99.63
2018-12-06T09:52:30.119Z,157.93
2018-12-06T09:55:00.144Z,223.87
2018-12-06T09:57:30.436Z,225.17
2018-12-06T10:00:00.633Z,199.30
2018-12-06T10:02:30.547Z,214.83
2018-12-06T10:05:00.388Z,222.37
2018-12-06T10:07:30.421Z,174.77
2018-12-06T10:10:00.534Z,233.97
2018-12-06T10:12:30.813Z,162.70
2018-12-06T10:15:00.837Z,151.80
2018-12-06T10:17:30.799Z,181.40
2018-12-06T10:20:01.309Z,163.90
2018-12-06T10:22:31.204Z,82.90
2018-12-06T10:25:01.201Z,205.10
2018-12-06T10:27:31.426Z,143.13
2018-12-06T10:30:01.306Z,194.33
2018-12-06T10:32:31.202Z,178.77
2018-12-06T10:35:01.265Z,126.20
2018-12-06T10:37:31.406Z,119.47
2018-12-06T10:40:01.496Z,160.37
2018-12-06T10:42:31.501Z,148.43
2018-12-06T10:45:01.637Z,136.07
2018-12-06T10:47:31.839Z,177.53
2018-12-06T10:50:01.891Z,161.00
2018-12-06T10:52:31.976Z,176.13
2018-12-06T10:55:02.044Z,157.27
2018-12-06T10:57:32.064Z,178.13
2018-12-06T11:00:02.499Z,157.50
2018-12-06T11:02:38.498Z,141.87
2018-12-06T11:05:08.576Z,152.43
2018-12-06T11:07:38.418Z,166.23
2018-12-06T11:10:09.144Z,131.23
2018-12-06T11:12:39.133Z,159.93
2018-12-06T11:15:09.145Z,115.07
2018-12-06T11:17:38.983Z,151.17
2018-12-06T11:20:09.019Z,161.03
2018-12-06T11:22:38.996Z,148.83
2018-12-06T11:25:09.155Z,137.87
2018-12-06T11:27:39.255Z,148.43
2018-12-06T11:30:09.577Z,151.30
2018-12-06T11:32:39.501Z,104.97
2018-12-06T11:35:09.405Z,135.87
2018-12-06T11:37:39.399Z,142.20
2018-12-06T11:40:09.444Z,141.07
2018-12-06T11:42:39.433Z,139.03
2018-12-06T11:45:09.459Z,147.20
2018-12-06T11:47:39.430Z,149.20
2018-12-06T11:50:09.431Z,137.47
2018-12-06T11:52:39.281Z,142.53
2018-12-06T11:55:09.304Z,136.17
2018-12-06T11:57:40.300Z,128.37
2018-12-06T12:00:10.224Z,108.40
2018-12-06T12:02:40.452Z,128.83
2018-12-06T12:05:10.433Z,122.57
2018-12-06T12:07:41.510Z,115.30
2018-12-06T12:10:11.388Z,107.03
2018-12-06T12:12:41.377Z,117.87
2018-12-06T12:15:12.582Z,116.53
2018-12-06T12:17:42.531Z,110.70
2018-12-06T12:20:12.583Z,121.10
2018-12-06T12:22:43.135Z,134.27
2018-12-06T12:25:13.022Z,105.43
2018-12-06T12:27:42.923Z,120.80
2018-12-06T12:30:12.944Z,109.00
2018-12-06T12:32:42.877Z,114.37
2018-12-06T12:35:12.832Z,125.53
2018-12-06T12:37:42.708Z,119.00
2018-12-06T12:40:13.142Z,110.20
2018-12-06T12:42:43.316Z,110.37
2018-12-06T12:45:13.236Z,107.47
2018-12-06T12:47:43.260Z,57.93
2018-12-06T12:50:13.237Z,102.73
2018-12-06T12:52:43.178Z,110.13
2018-12-06T12:55:13.311Z,109.27
2018-12-06T12:57:43.366Z,99.17
2018-12-06T13:00:13.245Z,118.00
2018-12-06T13:02:43.194Z,127.03
2018-12-06T13:05:13.044Z,135.63
2018-12-06T13:07:44.071Z,117.00
2018-12-06T13:10:14.087Z,115.47
2018-12-06T13:12:44.315Z,111.80
2018-12-06T13:15:14.340Z,116.97
2018-12-06T13:17:44.207Z,114.70
2018-12-06T13:20:14.184Z,106.63
2018-12-06T13:22:44.257Z,156.03
2018-12-06T13:25:14.203Z,102.37
2018-12-06T13:27:44.194Z,132.93
2018-12-06T13:30:14.215Z,125.70
2018-12-06T13:32:44.238Z,116.03
2018-12-06T13:35:14.272Z,116.63
2018-12-06T13:37:44.224Z,121.97
2018-12-06T13:40:14.155Z,117.53
2018-12-06T13:42:44.153Z,120.20
2018-12-06T13:45:15.243Z,127.70
2018-12-06T13:47:45.350Z,134.90
2018-12-06T13:50:15.459Z,119.60
2018-12-06T13:52:45.468Z,126.83
2018-12-06T13:55:15.517Z,123.60
2018-12-06T13:57:45.569Z,129.57
2018-12-06T14:00:15.497Z,122.07
2018-12-06T14:02:45.592Z,121.53
2018-12-06T14:05:15.359Z,60.83
2018-12-06T14:07:45.425Z,113.07
2018-12-06T14:10:15.667Z,110.07
2018-12-06T14:12:45.723Z,108.67
2018-12-06T14:15:15.705Z,116.10
2018-12-06T14:17:45.851Z,68.07
2018-12-06T14:20:15.786Z,63.73
2018-12-06T14:22:45.533Z,93.10
2018-12-06T14:25:15.478Z,64.03
2018-12-06T14:27:45.496Z,103.20
2018-12-06T14:30:15.457Z,111.87
2018-12-06T14:32:45.495Z,99.77
2018-12-06T14:35:15.563Z,80.07
2018-12-06T14:37:45.697Z,95.57
2018-12-06T14:40:15.767Z,93.07
2018-12-06T14:42:45.759Z,89.40
2018-12-06T14:45:15.694Z,46.43
2018-12-06T14:47:45.586Z,113.97
2018-12-06T14:50:15.546Z,108.07
2018-12-06T14:52:45.642Z,107.13
2018-12-06T14:55:16.552Z,106.10
2018-12-06T14:57:46.568Z,49.60
2018-12-06T15:00:16.632Z,52.27
2018-12-06T15:02:46.925Z,79.53
2018-12-06T15:05:17.165Z,85.03
2018-12-06T15:07:47.307Z,75.53
2018-12-06T15:10:17.400Z,75.20
2018-12-06T15:15:29.015Z,75.93
2018-12-06T15:17:58.963Z,106.03
2018-12-06T15:20:28.742Z,88.17
2018-12-06T15:22:58.555Z,82.17
2018-12-06T15:25:28.467Z,91.20
2018-12-06T15:27:58.378Z,100.00
2018-12-06T15:30:28.371Z,59.77
2018-12-06T15:32:58.214Z,105.40
2018-12-06T15:35:28.086Z,86.57
2018-12-06T15:37:57.980Z,97.17
2018-12-06T15:40:27.789Z,96.20
2018-12-06T15:42:57.559Z,84.07
2018-12-06T15:45:27.474Z,94.17
2018-12-06T15:47:58.474Z,69.07
2018-12-06T15:50:28.671Z,97.23
2018-12-06T15:52:58.507Z,85.57
2018-12-06T15:55:28.372Z,80.67
2018-12-06T15:57:58.201Z,83.43
2018-12-06T16:00:28.214Z,62.27
2018-12-06T16:02:57.977Z,37.30
2018-12-06T16:05:29.029Z,87.23
2018-12-06T16:07:58.935Z,96.07
2018-12-06T16:10:28.833Z,88.73
2018-12-06T16:12:58.663Z,63.00
2018-12-06T16:15:28.938Z,66.93
2018-12-06T16:17:58.921Z,106.57
2018-12-06T16:20:29.008Z,85.90
2018-12-06T16:22:58.918Z,89.60
2018-12-06T16:25:28.805Z,93.77
2018-12-06T16:27:58.609Z,86.40
2018-12-06T16:30:28.389Z,68.93
2018-12-06T16:32:58.341Z,65.53
2018-12-06T16:35:28.161Z,49.33
2018-12-06T16:37:58.026Z,55.50
2018-12-06T16:40:28.013Z,60.47
2018-12-06T16:42:57.772Z,84.77
2018-12-06T16:45:27.696Z,81.47
2018-12-06T16:47:57.528Z,57.43
2018-12-06T16:50:27.406Z,47.27
2018-12-06T16:52:57.393Z,79.57
2018-12-06T16:55:27.236Z,82.27
2018-12-06T16:57:57.040Z,78.70
2018-12-06T17:00:27.107Z,59.87
2018-12-06T17:02:57.099Z,89.70
2018-12-06T17:05:27.910Z,117.10
2018-12-06T17:07:57.895Z,85.57
2018-12-06T17:10:27.788Z,107.80
2018-12-06T17:12:57.736Z,108.73
2018-12-06T17:15:27.617Z,77.30
2018-12-06T17:17:57.618Z,90.73
2018-12-06T17:20:27.549Z,67.40
2018-12-06T17:22:57.427Z,94.00
2018-12-06T17:25:27.605Z,59.63
2018-12-06T17:27:57.579Z,72.33
2018-12-06T17:30:27.437Z,68.40
2018-12-06T17:32:57.337Z,63.50
2018-12-06T17:35:27.239Z,43.77
2018-12-06T17:37:57.219Z,62.00
2018-12-06T17:40:27.179Z,58.20
2018-12-06T17:42:57.339Z,39.20
2018-12-06T17:45:27.315Z,62.10
2018-12-06T17:47:58.165Z,75.07
2018-12-06T17:50:28.144Z,59.07
2018-12-06T17:52:58.121Z,71.70
2018-12-06T17:55:28.142Z,48.47
2018-12-06T17:57:57.914Z,57.33
2018-12-06T18:00:28.096Z,50.67
2018-12-06T18:02:57.956Z,38.90
2018-12-06T18:05:33.879Z,70.63
2018-12-06T18:08:04.440Z,90.33
2018-12-06T18:10:35.250Z,81.83
2018-12-06T18:13:05.585Z,78.13
2018-12-06T18:15:37.214Z,44.30
2018-12-06T18:18:07.281Z,77.47
2018-12-06T18:20:39.307Z,55.43
2018-12-06T18:23:11.847Z,55.07
2018-12-06T18:25:41.535Z,62.83
2018-12-06T18:28:11.209Z,51.83
2018-12-06T18:30:41.320Z,45.93
2018-12-06T18:33:13.529Z,91.40
2018-12-06T18:35:45.825Z,62.27
2018-12-06T18:38:18.537Z,53.00
2018-12-06T18:40:48.825Z,61.07
2018-12-06T18:43:19.982Z,81.67
2018-12-06T18:45:49.715Z,70.67
2018-12-06T18:48:19.789Z,81.70
2018-12-06T18:50:49.898Z,83.07
2018-12-06T18:53:19.736Z,63.13
2018-12-06T18:55:50.102Z,74.23
2018-12-06T18:58:20.030Z,75.73
2018-12-06T19:00:50.211Z,78.57
2018-12-06T19:03:20.014Z,59.03
2018-12-06T19:05:49.764Z,50.73
2018-12-06T19:08:19.737Z,75.33
2018-12-06T19:10:49.687Z,64.13
2018-12-06T19:13:19.545Z,54.57
2018-12-06T19:15:49.509Z,60.40
2018-12-06T19:18:19.472Z,95.43
2018-12-06T19:20:49.479Z,92.53
2018-12-06T19:23:19.559Z,70.27
2018-12-06T19:25:49.646Z,83.47
2018-12-06T19:28:19.469Z,79.53
2018-12-06T19:30:49.444Z,54.60
2018-12-06T19:33:25.578Z,96.90
2018-12-06T19:35:55.566Z,68.53
2018-12-06T19:38:25.463Z,60.63
2018-12-06T19:40:55.595Z,95.37
2018-12-06T19:43:26.179Z,95.80
2018-12-06T19:49:33.153Z,95.27
2018-12-06T19:52:04.818Z,73.83
2018-12-06T19:54:36.085Z,61.33
2018-12-06T19:57:09.805Z,68.83
2018-12-06T19:59:41.144Z,71.27
2018-12-06T20:02:13.746Z,74.63
2018-12-06T20:04:47.610Z,103.63
2018-12-06T20:07:19.154Z,95.57
2018-12-06T20:09:49.961Z,60.70
2018-12-06T20:12:20.184Z,54.47
2018-12-06T20:14:50.765Z,63.53
2018-12-06T20:17:24.563Z,47.27
2018-12-06T20:19:55.496Z,60.13
2018-12-06T20:22:26.527Z,100.33
2018-12-06T20:24:56.953Z,88.03
2018-12-06T20:27:28.285Z,59.83
2018-12-06T20:29:58.393Z,82.80
2018-12-06T20:32:28.844Z,89.60
2018-12-06T20:35:02.678Z,71.67
2018-12-06T20:37:33.458Z,86.43
2018-12-06T20:40:04.547Z,116.17
2018-12-06T20:42:36.546Z,94.03
2018-12-06T20:45:07.497Z,107.10
2018-12-06T20:47:38.286Z,89.10
2018-12-06T20:50:10.227Z,118.00
2018-12-06T20:52:41.100Z,63.73
2018-12-06T20:55:11.713Z,84.87
2018-12-06T20:57:44.762Z,94.07
2018-12-06T21:00:18.621Z,118.33
2018-12-06T21:02:49.076Z,88.20
2018-12-06T21:05:19.368Z,95.57
2018-12-06T21:07:50.287Z,90.73
2018-12-06T21:10:20.986Z,99.30
2018-12-06T21:12:52.057Z,110.57
2018-12-06T21:15:22.562Z,105.53
2018-12-06T21:17:53.040Z,137.23
2018-12-06T21:20:23.803Z,94.73
2018-12-06T21:22:54.646Z,81.20
2018-12-06T21:25:25.631Z,106.70
2018-12-06T21:27:55.885Z,108.00
2018-12-06T21:30:26.633Z,83.90
2018-12-06T21:32:57.628Z,87.00
2018-12-06T21:35:28.284Z,106.13
2018-12-06T21:37:58.751Z,81.60
2018-12-06T21:40:28.923Z,83.47
2018-12-06T21:42:59.239Z,129.40
2018-12-06T21:45:30.266Z,57.57
2018-12-06T21:48:00.278Z,39.83
2018-12-06T21:50:30.443Z,112.57
2018-12-06T21:53:01.265Z,55.57
2018-12-06T21:55:31.500Z,125.60
2018-12-06T21:58:01.728Z,98.00
2018-12-06T22:00:33.771Z,125.20
2018-12-06T22:03:04.301Z,78.87
2018-12-06T22:05:34.862Z,108.77
2018-12-06T22:08:05.938Z,58.27
2018-12-06T22:10:36.395Z,132.77
2018-12-06T22:13:07.308Z,126.27
2018-12-06T22:15:37.813Z,88.20
2018-12-06T22:18:08.536Z,77.37
2018-12-06T22:20:39.228Z,66.77
2018-12-06T22:23:09.500Z,122.53
2018-12-06T22:25:40.285Z,128.03
2018-12-06T22:28:10.989Z,115.63
2018-12-06T22:30:41.515Z,127.20
2018-12-06T22:33:12.243Z,116.37
2018-12-06T22:35:43.228Z,91.60
2018-12-06T22:38:13.549Z,78.73
2018-12-06T22:40:44.165Z,110.70
2018-12-06T22:43:15.000Z,114.27
2018-12-06T22:45:57.816Z,125.23
2018-12-06T22:48:28.485Z,85.77
2018-12-06T22:50:58.929Z,71.00
2018-12-06T22:53:29.729Z,109.93
2018-12-06T22:55:59.865Z,120.57
2018-12-06T22:58:29.941Z,73.00
2018-12-06T23:01:01.260Z,89.77
2018-12-06T23:03:33.758Z,89.43
2018-12-06T23:06:04.858Z,98.53
2018-12-06T23:08:35.205Z,90.60
2018-12-06T23:11:05.287Z,83.17
2018-12-06T23:13:35.668Z,94.63
2018-12-06T23:16:06.377Z,96.60
2018-12-06T23:18:36.947Z,89.67
2018-12-06T23:21:07.902Z,88.10
2018-12-06T23:23:38.741Z,79.10
2018-12-06T23:26:11.213Z,74.90
2018-12-06T23:28:41.896Z,111.03
2018-12-06T23:31:12.135Z,80.70
2018-12-06T23:33:42.592Z,95.87
2018-12-06T23:36:13.132Z,87.40
2018-12-06T23:38:43.314Z,93.03
2018-12-06T23:41:13.557Z,58.60
2018-12-06T23:43:44.480Z,107.20
2018-12-06T23:46:14.786Z,80.47
2018-12-06T23:48:45.952Z,74.30
2018-12-06T23:51:27.341Z,73.13
2018-12-06T23:53:57.375Z,104.00
2018-12-06T23:56:27.570Z,81.37
2018-12-06T23:58:58.978Z,93.63
